createdAt,value
2018-10-03T00:00:24.372Z,7.43
2018-10-03T00:02:52.645Z,7.40
2018-10-03T00:05:22.555Z,6.50
2018-10-03T00:07:51.208Z,8.03
2018-10-03T00:10:21.262Z,6.50
2018-10-03T00:12:50.651Z,7.00
2018-10-03T00:15:20.084Z,7.20
2018-10-03T00:17:48.571Z,6.80
2018-10-03T00:20:16.858Z,7.60
2018-10-03T00:22:45.115Z,6.83
2018-10-03T00:25:13.379Z,7.23
2018-10-03T00:27:41.726Z,7.40
2018-10-03T00:30:09.992Z,6.23
2018-10-03T00:32:38.271Z,8.37
2018-10-03T00:35:06.564Z,7.00
2018-10-03T00:37:34.849Z,8.10
2018-10-03T00:40:03.150Z,8.40
2018-10-03T00:42:31.420Z,8.37
2018-10-03T00:44:59.690Z,7.83
2018-10-03T00:47:27.956Z,7.10
2018-10-03T00:49:56.217Z,9.10
2018-10-03T00:52:24.477Z,7.43
2018-10-03T00:54:52.758Z,7.70
2018-10-03T00:57:20.955Z,8.67
2018-10-03T00:59:49.231Z,9.50
2018-10-03T01:02:17.454Z,8.20
2018-10-03T01:04:45.700Z,8.63
2018-10-03T01:07:13.946Z,8.57
2018-10-03T01:09:42.224Z,8.80
2018-10-03T01:12:10.492Z,7.53
2018-10-03T01:14:38.733Z,7.40
2018-10-03T01:17:07.056Z,9.07
2018-10-03T01:19:35.331Z,9.37
2018-10-03T01:22:03.569Z,7.90
2018-10-03T01:24:31.826Z,7.87
2018-10-03T01:27:00.057Z,7.37
2018-10-03T01:29:28.319Z,8.37
2018-10-03T01:31:56.664Z,7.33
2018-10-03T01:34:25.064Z,7.23
2018-10-03T01:36:53.347Z,7.50
2018-10-03T01:39:21.585Z,6.90
2018-10-03T01:41:49.828Z,7.17
2018-10-03T01:44:18.103Z,6.90
2018-10-03T01:46:46.528Z,8.17
2018-10-03T01:49:14.831Z,6.70
2018-10-03T01:51:43.063Z,6.60
2018-10-03T01:54:11.275Z,6.40
2018-10-03T01:56:39.638Z,6.87
2018-10-03T01:59:07.876Z,7.70
2018-10-03T02:01:37.470Z,7.57
2018-10-03T02:04:05.770Z,5.90
2018-10-03T02:06:34.895Z,6.70
2018-10-03T02:09:03.624Z,7.23
2018-10-03T02:11:31.871Z,6.80
2018-10-03T02:14:00.188Z,6.70
2018-10-03T02:16:28.374Z,7.40
2018-10-03T02:18:56.610Z,7.40
2018-10-03T02:21:24.888Z,7.90
2018-10-03T02:23:53.148Z,8.37
2018-10-03T02:26:22.446Z,10.20
2018-10-03T02:28:50.707Z,9.27
2018-10-03T02:31:19.631Z,9.13
2018-10-03T02:33:47.976Z,7.40
2018-10-03T02:36:16.245Z,7.67
2018-10-03T02:38:44.476Z,8.43
2018-10-03T02:41:12.753Z,8.20
2018-10-03T02:43:41.074Z,10.80
2018-10-03T02:46:09.309Z,10.00
2018-10-03T02:48:37.557Z,8.97
2018-10-03T02:51:05.803Z,10.00
2018-10-03T02:53:34.075Z,9.47
2018-10-03T02:56:02.339Z,11.03
2018-10-03T02:58:30.639Z,9.87
2018-10-03T03:00:58.907Z,10.47
2018-10-03T03:03:27.187Z,11.57
2018-10-03T03:05:55.436Z,9.93
2018-10-03T03:08:23.722Z,9.43
2018-10-03T03:10:51.960Z,11.77
2018-10-03T03:13:20.234Z,11.10
2018-10-03T03:15:48.498Z,9.80
2018-10-03T03:18:16.752Z,11.20
2018-10-03T03:20:45.559Z,11.40
2018-10-03T03:23:13.823Z,11.97
2018-10-03T03:25:42.101Z,11.90
2018-10-03T03:28:10.365Z,10.87
2018-10-03T03:30:38.616Z,9.50
2018-10-03T03:33:06.870Z,8.73
2018-10-03T03:35:35.139Z,8.77
2018-10-03T03:38:03.438Z,9.73
2018-10-03T03:40:31.693Z,9.87
2018-10-03T03:43:00.095Z,8.93
2018-10-03T03:45:28.363Z,8.77
2018-10-03T03:47:56.602Z,8.47
2018-10-03T03:50:24.863Z,9.50
2018-10-03T03:52:53.114Z,9.00
2018-10-03T03:55:21.377Z,9.80
2018-10-03T03:57:49.601Z,9.80
2018-10-03T04:00:17.973Z,8.77
2018-10-03T04:02:58.799Z,9.63
2018-10-03T04:05:27.154Z,8.97
2018-10-03T04:07:56.483Z,9.43
2018-10-03T04:10:24.828Z,8.43
2018-10-03T04:12:54.072Z,9.73
2018-10-03T04:15:22.338Z,7.90
2018-10-03T04:17:50.615Z,8.07
2018-10-03T04:20:18.975Z,8.07
2018-10-03T04:22:48.099Z,9.37
2018-10-03T04:25:17.299Z,8.37
2018-10-03T04:27:45.581Z,7.70
2018-10-03T04:30:13.845Z,7.97
2018-10-03T04:32:42.342Z,7.40
2018-10-03T04:35:10.703Z,7.60
2018-10-03T04:37:38.935Z,6.47
2018-10-03T04:40:07.330Z,6.53
2018-10-03T04:42:35.704Z,7.63
2018-10-03T04:45:03.976Z,7.03
2018-10-03T04:47:32.211Z,8.20
2018-10-03T04:50:00.516Z,8.20
2018-10-03T04:52:28.954Z,7.13
2018-10-03T04:54:57.261Z,6.83
2018-10-03T04:57:25.672Z,9.23
2018-10-03T04:59:54.042Z,6.57
2018-10-03T05:02:22.379Z,6.10
2018-10-03T05:04:50.701Z,6.83
2018-10-03T05:07:18.979Z,6.30
2018-10-03T05:09:47.239Z,6.30
2018-10-03T05:12:15.528Z,5.00
2018-10-03T05:14:43.819Z,6.27
2018-10-03T05:17:12.072Z,5.33
2018-10-03T05:19:40.298Z,5.73
2018-10-03T05:22:08.579Z,7.13
2018-10-03T05:24:36.867Z,6.80
2018-10-03T05:27:05.170Z,6.67
2018-10-03T05:29:33.436Z,5.80
2018-10-03T05:32:01.676Z,4.03
2018-10-03T05:34:29.979Z,4.77
2018-10-03T05:36:58.413Z,3.20
2018-10-03T05:39:26.681Z,3.57
2018-10-03T05:41:54.959Z,4.33
2018-10-03T05:44:23.235Z,4.50
2018-10-03T05:46:51.503Z,3.43
2018-10-03T05:49:19.990Z,3.80
2018-10-03T05:51:48.625Z,3.53
2018-10-03T05:54:16.861Z,2.73
2018-10-03T05:56:45.100Z,2.83
2018-10-03T05:59:13.376Z,3.57
2018-10-03T06:01:41.645Z,3.20
2018-10-03T06:04:09.901Z,2.60
2018-10-03T06:06:38.183Z,3.17
2018-10-03T06:09:09.012Z,3.23
2018-10-03T06:11:37.300Z,3.20
2018-10-03T06:14:05.795Z,2.73
2018-10-03T06:16:39.702Z,3.67
2018-10-03T06:19:08.146Z,2.93
2018-10-03T06:21:36.506Z,2.43
2018-10-03T06:24:04.809Z,2.00
2018-10-03T06:26:33.058Z,1.83
2018-10-03T06:29:01.310Z,2.90
2018-10-03T06:31:30.000Z,2.47
2018-10-03T06:34:00.703Z,2.50
2018-10-03T06:36:29.047Z,2.57
2018-10-03T06:38:58.502Z,2.17
2018-10-03T06:41:26.982Z,1.90
2018-10-03T06:43:56.066Z,1.93
2018-10-03T06:46:25.458Z,2.07
2018-10-03T06:48:54.254Z,1.50
2018-10-03T06:51:22.700Z,2.37
2018-10-03T06:53:51.133Z,1.90
2018-10-03T06:56:20.923Z,1.63
2018-10-03T06:58:49.794Z,2.37
2018-10-03T07:01:18.380Z,1.70
2018-10-03T07:03:46.679Z,1.73
2018-10-03T07:06:14.992Z,3.47
2018-10-03T07:08:43.919Z,1.80
2018-10-03T07:11:12.417Z,2.13
2018-10-03T07:13:44.872Z,3.10
2018-10-03T07:16:13.573Z,1.60
2018-10-03T07:18:42.252Z,2.00
2018-10-03T07:21:11.233Z,1.70
2018-10-03T07:23:39.706Z,1.77
2018-10-03T07:26:09.640Z,2.13
2018-10-03T07:28:39.785Z,1.33
2018-10-03T07:31:08.971Z,2.13
2018-10-03T07:33:38.197Z,3.23
2018-10-03T07:36:07.284Z,1.53
2018-10-03T07:38:35.884Z,1.70
2018-10-03T07:41:04.539Z,2.00
2018-10-03T07:43:33.042Z,1.90
2018-10-03T07:46:01.321Z,1.97
2018-10-03T07:48:29.796Z,2.23
2018-10-03T07:50:58.073Z,1.33
2018-10-03T07:53:26.461Z,1.50
2018-10-03T07:55:54.780Z,2.83
2018-10-03T07:58:23.041Z,2.73
2018-10-03T08:00:51.270Z,2.27
2018-10-03T08:03:19.666Z,2.10
2018-10-03T08:05:47.951Z,1.37
2018-10-03T08:08:16.348Z,1.60
2018-10-03T08:10:44.734Z,1.80
2018-10-03T08:13:12.960Z,1.57
2018-10-03T08:15:41.257Z,1.70
2018-10-03T08:18:09.673Z,1.57
2018-10-03T08:20:37.956Z,1.43
2018-10-03T08:23:06.281Z,2.20
2018-10-03T08:25:34.580Z,1.30
2018-10-03T08:28:02.970Z,1.90
2018-10-03T08:30:31.406Z,2.03
2018-10-03T08:32:59.877Z,1.50
2018-10-03T08:35:28.102Z,1.73
2018-10-03T08:37:56.458Z,1.53
2018-10-03T08:40:24.700Z,1.70
2018-10-03T08:42:52.971Z,1.60
2018-10-03T08:45:21.473Z,1.00
2018-10-03T08:47:49.746Z,1.30
2018-10-03T08:50:18.077Z,1.33
2018-10-03T08:52:46.424Z,1.70
2018-10-03T08:55:15.031Z,1.40
2018-10-03T08:57:43.369Z,1.27
2018-10-03T09:00:12.441Z,1.67
2018-10-03T09:02:40.840Z,1.63
2018-10-03T09:05:09.992Z,1.90
2018-10-03T09:07:38.362Z,0.90
2018-10-03T09:10:06.660Z,1.83
2018-10-03T09:12:35.089Z,1.57
2018-10-03T09:15:03.387Z,1.33
2018-10-03T09:17:31.689Z,1.93
2018-10-03T09:19:59.933Z,1.70
2018-10-03T09:22:28.211Z,2.07
2018-10-03T09:24:56.519Z,1.53
2018-10-03T09:27:24.853Z,1.40
2018-10-03T09:29:54.482Z,1.83
2018-10-03T09:32:22.779Z,1.03
2018-10-03T09:34:51.161Z,1.60
2018-10-03T09:37:19.932Z,1.43
2018-10-03T09:39:48.335Z,1.83
2018-10-03T09:42:16.602Z,2.57
2018-10-03T09:44:44.924Z,1.40
2018-10-03T09:47:13.216Z,1.87
2018-10-03T09:49:41.492Z,2.03
2018-10-03T09:52:09.768Z,1.37
2018-10-03T09:54:38.004Z,1.40
2018-10-03T09:57:06.263Z,1.40
2018-10-03T09:59:34.512Z,2.00
2018-10-03T10:02:02.804Z,1.20
2018-10-03T10:04:52.060Z,2.03
2018-10-03T10:07:20.427Z,1.00
2018-10-03T10:09:50.013Z,1.90
2018-10-03T10:14:51.027Z,1.20
2018-10-03T10:17:19.337Z,2.50
2018-10-03T10:19:47.612Z,1.43
2018-10-03T10:22:15.895Z,2.00
2018-10-03T10:24:44.273Z,2.00
2018-10-03T10:27:12.606Z,1.40
2018-10-03T10:29:40.818Z,1.70
2018-10-03T10:32:09.232Z,1.37
2018-10-03T10:34:37.415Z,1.80
2018-10-03T10:37:05.693Z,2.27
2018-10-03T10:39:34.008Z,1.47
2018-10-03T10:42:02.868Z,1.63
2018-10-03T10:44:33.709Z,1.47
2018-10-03T10:47:04.587Z,2.67
2018-10-03T10:49:34.714Z,1.33
2018-10-03T10:52:07.164Z,1.30
2018-10-03T10:54:37.198Z,2.40
2018-10-03T10:57:05.940Z,2.77
2018-10-03T10:59:34.736Z,1.13
2018-10-03T11:02:05.349Z,2.10
2018-10-03T11:04:33.964Z,1.90
2018-10-03T11:07:04.140Z,1.90
2018-10-03T11:09:32.923Z,1.30
2018-10-03T11:12:01.505Z,1.27
2018-10-03T11:14:30.964Z,1.10
2018-10-03T11:17:01.696Z,2.50
2018-10-03T11:19:31.818Z,1.23
2018-10-03T11:22:01.148Z,1.37
2018-10-03T11:24:33.846Z,1.43
2018-10-03T11:27:03.936Z,1.90
2018-10-03T11:30:08.716Z,1.37
2018-10-03T11:32:37.845Z,1.40
2018-10-03T11:35:06.395Z,1.70
2018-10-03T11:37:34.730Z,1.00
2018-10-03T11:40:03.058Z,1.13
2018-10-03T11:42:31.354Z,1.10
2018-10-03T11:45:00.317Z,1.87
2018-10-03T11:47:28.571Z,1.90
2018-10-03T11:49:56.847Z,0.90
2018-10-03T11:52:26.879Z,1.00
2018-10-03T11:54:55.115Z,1.13
2018-10-03T11:57:24.262Z,1.60
2018-10-03T12:00:10.319Z,1.50
2018-10-03T12:02:39.730Z,1.83
2018-10-03T12:05:11.685Z,1.63
2018-10-03T12:07:41.082Z,1.60
2018-10-03T12:10:10.304Z,1.77
2018-10-03T12:12:39.333Z,1.47
2018-10-03T12:15:07.935Z,2.10
2018-10-03T12:17:39.243Z,1.63
2018-10-03T12:20:07.923Z,1.37
2018-10-03T12:22:39.562Z,1.50
2018-10-03T12:25:08.071Z,1.73
2018-10-03T12:27:37.011Z,1.30
2018-10-03T12:30:11.875Z,1.50
2018-10-03T12:32:52.231Z,2.20
2018-10-03T12:35:27.154Z,1.00
2018-10-03T12:37:56.469Z,1.60
2018-10-03T12:40:25.561Z,1.70
2018-10-03T12:42:54.196Z,1.87
2018-10-03T12:45:24.655Z,1.17
2018-10-03T12:47:54.279Z,2.23
2018-10-03T12:50:22.672Z,1.80
2018-10-03T12:52:51.500Z,1.30
2018-10-03T12:55:20.235Z,1.13
2018-10-03T12:57:49.353Z,1.60
2018-10-03T13:00:22.640Z,1.70
2018-10-03T13:02:53.435Z,1.70
2018-10-03T13:05:23.194Z,1.67
2018-10-03T13:07:51.521Z,1.30
2018-10-03T13:10:20.415Z,1.40
2018-10-03T13:12:48.919Z,1.00
2018-10-03T13:15:17.282Z,1.40
2018-10-03T13:17:45.530Z,1.50
2018-10-03T13:20:13.931Z,1.60
2018-10-03T13:22:42.288Z,2.00
2018-10-03T13:25:10.869Z,1.37
2018-10-03T13:27:39.520Z,1.67
2018-10-03T13:30:07.835Z,1.30
2018-10-03T13:32:36.393Z,0.97
2018-10-03T13:35:04.937Z,1.00
2018-10-03T13:37:33.154Z,3.03
2018-10-03T13:40:02.550Z,1.83
2018-10-03T13:42:31.364Z,1.70
2018-10-03T13:44:59.751Z,2.67
2018-10-03T13:47:27.996Z,1.13
2018-10-03T13:49:56.258Z,1.30
2018-10-03T13:52:24.547Z,1.20
2018-10-03T13:54:52.860Z,1.93
2018-10-03T13:57:21.127Z,1.00
2018-10-03T13:59:49.362Z,1.93
2018-10-03T14:02:17.585Z,1.70
2018-10-03T14:04:45.815Z,2.20
2018-10-03T14:07:14.115Z,1.70
2018-10-03T14:09:42.348Z,1.33
2018-10-03T14:12:12.593Z,1.30
2018-10-03T14:14:41.309Z,1.43
2018-10-03T14:17:09.564Z,1.03
2018-10-03T14:19:37.851Z,1.40
2018-10-03T14:22:06.106Z,1.83
2018-10-03T14:24:34.565Z,1.30
2018-10-03T14:27:03.059Z,1.10
2018-10-03T14:29:32.666Z,1.00
2018-10-03T14:32:00.946Z,1.70
2018-10-03T14:34:29.272Z,1.30
2018-10-03T14:36:57.563Z,2.37
2018-10-03T14:39:25.973Z,1.50
2018-10-03T14:41:54.262Z,1.70
2018-10-03T14:44:22.663Z,1.60
2018-10-03T14:46:50.916Z,2.20
2018-10-03T14:49:19.187Z,1.70
2018-10-03T14:51:47.829Z,1.40
2018-10-03T14:54:16.129Z,1.57
2018-10-03T14:56:44.483Z,0.93
2018-10-03T14:59:12.846Z,2.03
2018-10-03T15:01:41.231Z,2.30
2018-10-03T15:04:09.491Z,1.40
2018-10-03T15:06:37.788Z,1.23
2018-10-03T15:09:08.021Z,1.47
2018-10-03T15:11:36.420Z,1.00
2018-10-03T15:14:05.013Z,1.03
2018-10-03T15:16:33.482Z,1.20
2018-10-03T15:19:01.903Z,1.63
2018-10-03T15:21:36.038Z,1.00
2018-10-03T15:24:04.476Z,1.70
2018-10-03T15:26:32.794Z,1.40
2018-10-03T15:29:01.400Z,1.40
2018-10-03T15:31:30.081Z,1.30
2018-10-03T15:33:59.250Z,1.60
2018-10-03T15:36:28.548Z,1.73
2018-10-03T15:38:57.051Z,1.40
2018-10-03T15:41:27.932Z,1.13
2018-10-03T15:43:56.355Z,1.50
2018-10-03T15:46:24.742Z,1.23
2018-10-03T15:48:53.522Z,1.97
2018-10-03T15:51:21.894Z,1.70
2018-10-03T15:53:50.436Z,2.07
2018-10-03T15:56:18.844Z,1.63
2018-10-03T15:58:47.167Z,2.70
2018-10-03T16:01:15.620Z,2.20
2018-10-03T16:03:44.518Z,1.63
2018-10-03T16:06:13.671Z,2.07
2018-10-03T16:08:42.317Z,2.70
2018-10-03T16:11:10.794Z,1.93
2018-10-03T16:13:40.665Z,1.97
2018-10-03T16:16:09.420Z,2.07
2018-10-03T16:18:37.752Z,1.50
2018-10-03T16:21:06.047Z,1.77
2018-10-03T16:23:34.284Z,1.83
2018-10-03T16:26:03.280Z,1.70
2018-10-03T16:28:31.958Z,1.97
2018-10-03T16:31:00.576Z,2.07
2018-10-03T16:33:29.109Z,2.00
2018-10-03T16:35:57.647Z,1.90
2018-10-03T16:38:25.892Z,1.23
2018-10-03T16:40:54.221Z,1.40
2018-10-03T16:43:22.468Z,2.03
2018-10-03T16:45:50.890Z,2.07
2018-10-03T16:48:19.195Z,1.80
2018-10-03T16:50:47.874Z,1.40
2018-10-03T16:53:16.198Z,2.10
2018-10-03T16:55:44.701Z,1.67
2018-10-03T16:58:13.083Z,1.50
2018-10-03T17:00:45.547Z,4.83
2018-10-03T17:03:14.251Z,2.73
2018-10-03T17:05:42.763Z,1.67
2018-10-03T17:08:11.176Z,2.53
2018-10-03T17:10:39.761Z,2.40
2018-10-03T17:13:08.084Z,5.20
2018-10-03T17:15:36.580Z,4.17
2018-10-03T17:18:04.948Z,2.17
2018-10-03T17:20:33.288Z,3.33
2018-10-03T17:23:01.583Z,1.80
2018-10-03T17:25:29.887Z,2.40
2018-10-03T17:27:58.188Z,2.23
2018-10-03T17:30:26.530Z,2.90
2018-10-03T17:32:54.787Z,2.47
2018-10-03T17:35:23.027Z,3.17
2018-10-03T17:37:51.429Z,2.10
2018-10-03T17:40:20.247Z,2.40
2018-10-03T17:42:48.516Z,3.70
2018-10-03T17:45:16.901Z,3.53
2018-10-03T17:47:45.123Z,3.30
2018-10-03T17:50:13.436Z,4.07
2018-10-03T17:52:41.727Z,4.00
2018-10-03T17:55:10.111Z,3.10
2018-10-03T17:57:38.397Z,3.50
2018-10-03T18:00:07.360Z,2.80
2018-10-03T18:02:35.596Z,3.90
2018-10-03T18:05:04.008Z,4.80
2018-10-03T18:07:32.154Z,3.67
2018-10-03T18:10:00.424Z,3.53
2018-10-03T18:12:28.682Z,3.00
2018-10-03T18:14:57.280Z,2.57
2018-10-03T18:17:25.667Z,2.57
2018-10-03T18:19:53.936Z,2.50
2018-10-03T18:22:22.199Z,3.50
2018-10-03T18:24:50.612Z,2.90
2018-10-03T18:27:18.891Z,2.83
2018-10-03T18:29:47.111Z,3.60
2018-10-03T18:32:15.528Z,3.00
2018-10-03T18:34:43.898Z,3.50
2018-10-03T18:37:12.212Z,4.73
2018-10-03T18:39:40.585Z,4.83
2018-10-03T18:42:08.901Z,4.27
2018-10-03T18:44:37.215Z,4.60
2018-10-03T18:47:05.564Z,4.67
2018-10-03T18:49:33.888Z,4.50
2018-10-03T18:52:02.244Z,3.93
2018-10-03T18:54:30.514Z,3.90
2018-10-03T18:56:58.915Z,3.53
2018-10-03T18:59:27.311Z,2.60
2018-10-03T19:01:55.595Z,2.87
2018-10-03T19:04:23.946Z,2.53
2018-10-03T19:06:52.235Z,3.23
2018-10-03T19:09:20.514Z,3.03
2018-10-03T19:11:48.874Z,2.90
2018-10-03T19:14:17.212Z,2.37
2018-10-03T19:16:45.471Z,3.20
2018-10-03T19:19:13.867Z,2.70
2018-10-03T19:21:42.776Z,2.83
2018-10-03T19:24:11.078Z,2.20
2018-10-03T19:26:39.439Z,1.57
2018-10-03T19:29:07.794Z,1.97
2018-10-03T19:31:36.041Z,2.13
2018-10-03T19:34:04.298Z,2.10
2018-10-03T19:36:32.538Z,2.30
2018-10-03T19:39:00.834Z,2.20
2018-10-03T19:41:29.260Z,2.80
2018-10-03T19:43:57.617Z,2.07
2018-10-03T19:46:25.879Z,1.63
2018-10-03T19:48:54.168Z,2.13
2018-10-03T19:51:22.538Z,1.90
2018-10-03T19:53:50.838Z,1.90
2018-10-03T19:56:19.142Z,2.40
2018-10-03T19:58:47.488Z,2.60
2018-10-03T20:01:15.786Z,1.57
2018-10-03T20:03:44.126Z,2.97
2018-10-03T20:06:12.457Z,2.70
2018-10-03T20:08:40.895Z,1.77
2018-10-03T20:11:09.518Z,1.80
2018-10-03T20:13:37.835Z,2.17
2018-10-03T20:16:06.143Z,2.30
2018-10-03T20:18:34.478Z,3.00
2018-10-03T20:21:02.873Z,2.50
2018-10-03T20:23:31.155Z,1.97
2018-10-03T20:25:59.464Z,2.00
2018-10-03T20:28:27.733Z,2.30
2018-10-03T20:30:56.019Z,2.17
2018-10-03T20:33:24.645Z,2.37
2018-10-03T20:35:52.921Z,2.47
2018-10-03T20:38:21.175Z,2.80
2018-10-03T20:40:49.483Z,2.70
2018-10-03T20:43:17.776Z,1.67
2018-10-03T20:45:46.101Z,1.97
2018-10-03T20:48:14.342Z,3.47
2018-10-03T20:50:44.575Z,2.73
2018-10-03T20:53:12.855Z,3.67
2018-10-03T20:55:42.471Z,2.43
2018-10-03T20:58:10.941Z,2.87
2018-10-03T21:00:39.688Z,2.73
2018-10-03T21:03:07.989Z,2.57
2018-10-03T21:05:37.264Z,3.10
2018-10-03T21:08:05.768Z,4.03
2018-10-03T21:10:34.744Z,3.10
2018-10-03T21:13:03.032Z,2.60
2018-10-03T21:15:31.603Z,2.20
2018-10-03T21:17:59.887Z,3.13
2018-10-03T21:20:28.162Z,3.20
2018-10-03T21:22:56.451Z,2.60
2018-10-03T21:25:24.719Z,3.63
2018-10-03T21:27:53.528Z,2.53
2018-10-03T21:30:21.813Z,3.90
2018-10-03T21:32:50.483Z,2.80
2018-10-03T21:35:19.456Z,3.23
2018-10-03T21:37:47.733Z,3.30
2018-10-03T21:40:17.984Z,3.03
2018-10-03T21:42:46.361Z,2.77
2018-10-03T21:45:14.728Z,2.50
2018-10-03T21:47:45.817Z,2.33
2018-10-03T21:50:14.176Z,2.57
2018-10-03T21:52:42.547Z,3.67
2018-10-03T21:55:10.925Z,5.00
2018-10-03T21:57:39.390Z,6.43
2018-10-03T22:00:08.348Z,4.87
2018-10-03T22:02:37.102Z,4.30
2018-10-03T22:05:08.956Z,4.97
2018-10-03T22:07:37.659Z,4.30
2018-10-03T22:10:07.009Z,4.20
2018-10-03T22:12:36.192Z,3.70
2018-10-03T22:15:05.259Z,4.70
2018-10-03T22:17:40.256Z,4.07
2018-10-03T22:20:08.732Z,3.13
2018-10-03T22:22:36.995Z,3.03
2018-10-03T22:25:05.263Z,3.30
2018-10-03T22:27:34.725Z,3.80
2018-10-03T22:30:02.971Z,2.60
2018-10-03T22:32:31.239Z,2.53
2018-10-03T22:34:59.506Z,3.40
2018-10-03T22:37:27.803Z,3.90
2018-10-03T22:39:56.128Z,3.07
2018-10-03T22:42:24.426Z,3.50
2018-10-03T22:44:52.684Z,3.30
2018-10-03T22:47:20.939Z,4.77
2018-10-03T22:49:49.276Z,3.30
2018-10-03T22:52:18.808Z,3.87
2018-10-03T22:54:47.224Z,3.37
2018-10-03T22:57:15.543Z,2.93
2018-10-03T22:59:43.785Z,3.83
2018-10-03T23:02:12.427Z,3.33
2018-10-03T23:04:40.706Z,3.20
2018-10-03T23:07:08.955Z,2.80
2018-10-03T23:09:37.241Z,5.17
2018-10-03T23:12:06.538Z,2.90
2018-10-03T23:14:34.968Z,3.70
2018-10-03T23:17:03.246Z,2.90
2018-10-03T23:19:31.512Z,2.90
2018-10-03T23:22:00.053Z,3.20
2018-10-03T23:24:28.312Z,4.00
2018-10-03T23:26:56.639Z,3.40
2018-10-03T23:29:24.935Z,3.90
2018-10-03T23:31:54.288Z,2.63
2018-10-03T23:34:22.585Z,3.00
2018-10-03T23:36:50.902Z,3.07
2018-10-03T23:39:19.512Z,3.50
2018-10-03T23:41:47.790Z,2.63
2018-10-03T23:44:16.050Z,3.63
2018-10-03T23:46:45.283Z,2.70
2018-10-03T23:49:13.688Z,3.33
2018-10-03T23:51:42.007Z,3.10
2018-10-03T23:54:10.495Z,2.93
2018-10-03T23:56:40.340Z,3.30
2018-10-03T23:59:08.681Z,2.87
